sensor_id;sensor_type;location;lat;lon;timestamp;P1;durP1;ratioP1;P2;durP2;ratioP2
3643;SDS011;1838;50.742;7.158;2022-12-07T00:02:01;42.33;;;20.03;;
3643;SDS011;1838;50.742;7.158;2022-12-07T00:04:26;44.53;;;21.83;;
3643;SDS011;1838;50.742;7.158;2022-12-07T00:06:52;43.63;;;19.50;;
3643;SDS011;1838;50.742;7.158;2022-12-07T00:09:18;45.57;;;21.97;;
3643;SDS011;1838;50.742;7.158;2022-12-07T00:11:45;47.07;;;20.67;;
3643;SDS011;1838;50.742;7.158;2022-12-07T00:14:15;49.97;;;21.67;;
3643;SDS011;1838;50.742;7.158;2022-12-07T00:16:41;50.27;;;20.50;;
3643;SDS011;1838;50.742;7.158;2022-12-07T00:19:08;46.30;;;22.50;;
3643;SDS011;1838;50.742;7.158;2022-12-07T00:21:35;49.33;;;21.13;;
3643;SDS011;1838;50.742;7.158;2022-12-07T00:24:01;48.67;;;21.70;;
3643;SDS011;1838;50.742;7.158;2022-12-07T00:26:29;43.47;;;21.03;;
3643;SDS011;1838;50.742;7.158;2022-12-07T00:28:58;50.60;;;22.60;;
3643;SDS011;1838;50.742;7.158;2022-12-07T00:31:30;48.63;;;21.57;;
3643;SDS011;1838;50.742;7.158;2022-12-07T00:34:03;41.73;;;20.47;;
3643;SDS011;1838;50.742;7.158;2022-12-07T00:36:32;47.80;;;21.47;;
3643;SDS011;1838;50.742;7.158;2022-12-07T00:38:58;47.27;;;22.80;;
3643;SDS011;1838;50.742;7.158;2022-12-07T00:41:25;48.17;;;22.20;;
3643;SDS011;1838;50.742;7.158;2022-12-07T00:43:52;46.87;;;23.57;;
3643;SDS011;1838;50.742;7.158;2022-12-07T00:46:18;45.57;;;23.50;;
3643;SDS011;1838;50.742;7.158;2022-12-07T00:48:45;47.70;;;22.93;;
3643;SDS011;1838;50.742;7.158;2022-12-07T00:51:11;50.43;;;24.47;;
3643;SDS011;1838;50.742;7.158;2022-12-07T00:53:38;48.43;;;23.10;;
3643;SDS011;1838;50.742;7.158;2022-12-07T00:56:05;44.70;;;21.93;;
3643;SDS011;1838;50.742;7.158;2022-12-07T00:58:32;47.60;;;22.37;;
3643;SDS011;1838;50.742;7.158;2022-12-07T01:00:59;47.40;;;22.77;;
3643;SDS011;1838;50.742;7.158;2022-12-07T01:03:26;47.80;;;22.30;;
3643;SDS011;1838;50.742;7.158;2022-12-07T01:05:52;49.90;;;24.73;;
3643;SDS011;1838;50.742;7.158;2022-12-07T01:08:20;47.60;;;23.17;;
3643;SDS011;1838;50.742;7.158;2022-12-07T01:10:46;50.33;;;24.67;;
3643;SDS011;1838;50.742;7.158;2022-12-07T01:13:12;55.40;;;24.40;;
3643;SDS011;1838;50.742;7.158;2022-12-07T01:15:41;46.63;;;23.70;;
3643;SDS011;1838;50.742;7.158;2022-12-07T01:18:07;55.17;;;26.33;;
3643;SDS011;1838;50.742;7.158;2022-12-07T01:20:33;43.20;;;22.43;;
3643;SDS011;1838;50.742;7.158;2022-12-07T01:22:59;68.30;;;24.67;;
3643;SDS011;1838;50.742;7.158;2022-12-07T01:25:24;45.00;;;23.77;;
3643;SDS011;1838;50.742;7.158;2022-12-07T01:27:50;54.27;;;23.43;;
3643;SDS011;1838;50.742;7.158;2022-12-07T01:30:16;51.63;;;24.50;;
3643;SDS011;1838;50.742;7.158;2022-12-07T01:32:41;42.20;;;22.07;;
3643;SDS011;1838;50.742;7.158;2022-12-07T01:35:07;47.17;;;23.90;;
3643;SDS011;1838;50.742;7.158;2022-12-07T01:37:36;44.17;;;23.10;;
3643;SDS011;1838;50.742;7.158;2022-12-07T01:40:03;42.30;;;21.40;;
3643;SDS011;1838;50.742;7.158;2022-12-07T01:42:30;45.90;;;22.47;;
3643;SDS011;1838;50.742;7.158;2022-12-07T01:47:43;41.30;;;21.00;;
3643;SDS011;1838;50.742;7.158;2022-12-07T01:50:18;46.97;;;23.80;;
3643;SDS011;1838;50.742;7.158;2022-12-07T01:52:45;47.50;;;23.83;;
3643;SDS011;1838;50.742;7.158;2022-12-07T01:55:13;51.50;;;24.90;;
3643;SDS011;1838;50.742;7.158;2022-12-07T01:57:41;46.27;;;24.20;;
3643;SDS011;1838;50.742;7.158;2022-12-07T02:00:13;45.47;;;23.50;;
3643;SDS011;1838;50.742;7.158;2022-12-07T02:02:44;54.40;;;25.40;;
3643;SDS011;1838;50.742;7.158;2022-12-07T02:05:13;52.67;;;24.90;;
3643;SDS011;1838;50.742;7.158;2022-12-07T02:07:39;46.83;;;23.50;;
3643;SDS011;1838;50.742;7.158;2022-12-07T02:10:38;49.90;;;24.47;;
3643;SDS011;1838;50.742;7.158;2022-12-07T02:12:58;53.53;;;24.53;;
3643;SDS011;1838;50.742;7.158;2022-12-07T02:18:34;50.90;;;23.20;;
3643;SDS011;1838;50.742;7.158;2022-12-07T02:21:16;61.77;;;25.83;;
3643;SDS011;1838;50.742;7.158;2022-12-07T02:24:15;50.37;;;24.90;;
3643;SDS011;1838;50.742;7.158;2022-12-07T02:27:18;49.73;;;24.60;;
3643;SDS011;1838;50.742;7.158;2022-12-07T02:30:09;47.17;;;24.50;;
3643;SDS011;1838;50.742;7.158;2022-12-07T02:37:48;55.67;;;25.83;;
3643;SDS011;1838;50.742;7.158;2022-12-07T02:40:18;49.70;;;24.73;;
3643;SDS011;1838;50.742;7.158;2022-12-07T02:42:58;59.47;;;26.40;;
3643;SDS011;1838;50.742;7.158;2022-12-07T02:45:44;53.57;;;25.73;;
3643;SDS011;1838;50.742;7.158;2022-12-07T02:48:12;55.83;;;26.23;;
3643;SDS011;1838;50.742;7.158;2022-12-07T02:50:43;58.57;;;27.90;;
3643;SDS011;1838;50.742;7.158;2022-12-07T02:56:45;51.80;;;25.97;;
3643;SDS011;1838;50.742;7.158;2022-12-07T03:01:28;49.70;;;26.23;;
3643;SDS011;1838;50.742;7.158;2022-12-07T03:04:21;57.67;;;26.67;;
3643;SDS011;1838;50.742;7.158;2022-12-07T03:10:02;53.73;;;24.70;;
3643;SDS011;1838;50.742;7.158;2022-12-07T03:12:32;49.43;;;24.50;;
3643;SDS011;1838;50.742;7.158;2022-12-07T03:15:08;47.67;;;24.70;;
3643;SDS011;1838;50.742;7.158;2022-12-07T03:17:45;51.60;;;25.30;;
3643;SDS011;1838;50.742;7.158;2022-12-07T03:20:13;47.80;;;24.57;;
3643;SDS011;1838;50.742;7.158;2022-12-07T03:22:41;53.67;;;25.80;;
3643;SDS011;1838;50.742;7.158;2022-12-07T03:25:10;50.23;;;25.00;;
3643;SDS011;1838;50.742;7.158;2022-12-07T03:30:12;55.87;;;24.60;;
3643;SDS011;1838;50.742;7.158;2022-12-07T03:32:44;58.20;;;25.63;;
3643;SDS011;1838;50.742;7.158;2022-12-07T03:38:31;45.43;;;23.97;;
3643;SDS011;1838;50.742;7.158;2022-12-07T03:41:24;58.37;;;25.60;;
3643;SDS011;1838;50.742;7.158;2022-12-07T03:43:53;48.53;;;24.50;;
3643;SDS011;1838;50.742;7.158;2022-12-07T03:46:24;47.40;;;25.67;;
3643;SDS011;1838;50.742;7.158;2022-12-07T03:49:18;50.47;;;25.17;;
3643;SDS011;1838;50.742;7.158;2022-12-07T03:54:19;45.00;;;23.70;;
3643;SDS011;1838;50.742;7.158;2022-12-07T03:56:49;47.23;;;24.90;;
3643;SDS011;1838;50.742;7.158;2022-12-07T03:59:16;56.33;;;27.33;;
3643;SDS011;1838;50.742;7.158;2022-12-07T04:01:43;45.50;;;24.30;;
3643;SDS011;1838;50.742;7.158;2022-12-07T04:04:09;48.87;;;23.90;;
3643;SDS011;1838;50.742;7.158;2022-12-07T04:06:35;48.97;;;25.37;;
3643;SDS011;1838;50.742;7.158;2022-12-07T04:09:01;61.97;;;26.27;;
3643;SDS011;1838;50.742;7.158;2022-12-07T04:11:26;51.60;;;25.43;;
3643;SDS011;1838;50.742;7.158;2022-12-07T04:13:52;45.80;;;25.20;;
3643;SDS011;1838;50.742;7.158;2022-12-07T04:16:36;57.60;;;25.00;;
3643;SDS011;1838;50.742;7.158;2022-12-07T04:19:01;48.20;;;24.87;;
3643;SDS011;1838;50.742;7.158;2022-12-07T04:21:27;46.33;;;23.33;;
3643;SDS011;1838;50.742;7.158;2022-12-07T04:23:52;48.80;;;24.63;;
3643;SDS011;1838;50.742;7.158;2022-12-07T04:26:18;48.07;;;24.60;;
3643;SDS011;1838;50.742;7.158;2022-12-07T04:28:43;51.43;;;26.57;;
3643;SDS011;1838;50.742;7.158;2022-12-07T04:31:09;57.20;;;24.80;;
3643;SDS011;1838;50.742;7.158;2022-12-07T04:33:35;58.57;;;27.00;;
3643;SDS011;1838;50.742;7.158;2022-12-07T04:36:00;53.57;;;25.07;;
3643;SDS011;1838;50.742;7.158;2022-12-07T04:38:26;49.60;;;26.30;;
3643;SDS011;1838;50.742;7.158;2022-12-07T04:40:51;59.53;;;25.23;;
3643;SDS011;1838;50.742;7.158;2022-12-07T04:43:17;51.43;;;24.60;;
3643;SDS011;1838;50.742;7.158;2022-12-07T04:45:48;51.20;;;23.43;;
3643;SDS011;1838;50.742;7.158;2022-12-07T04:48:15;51.50;;;25.20;;
3643;SDS011;1838;50.742;7.158;2022-12-07T04:50:41;52.20;;;25.67;;
3643;SDS011;1838;50.742;7.158;2022-12-07T04:53:06;52.50;;;25.20;;
3643;SDS011;1838;50.742;7.158;2022-12-07T04:55:32;52.17;;;22.87;;
3643;SDS011;1838;50.742;7.158;2022-12-07T04:57:57;49.87;;;25.10;;
3643;SDS011;1838;50.742;7.158;2022-12-07T05:00:23;52.77;;;25.80;;
3643;SDS011;1838;50.742;7.158;2022-12-07T05:02:48;52.10;;;25.10;;
3643;SDS011;1838;50.742;7.158;2022-12-07T05:05:14;55.77;;;25.73;;
3643;SDS011;1838;50.742;7.158;2022-12-07T05:07:39;51.90;;;25.97;;
3643;SDS011;1838;50.742;7.158;2022-12-07T05:10:06;53.60;;;24.67;;
3643;SDS011;1838;50.742;7.158;2022-12-07T05:12:32;50.83;;;22.27;;
3643;SDS011;1838;50.742;7.158;2022-12-07T05:14:58;55.50;;;25.83;;
3643;SDS011;1838;50.742;7.158;2022-12-07T05:17:23;51.00;;;26.33;;
3643;SDS011;1838;50.742;7.158;2022-12-07T05:19:49;52.17;;;25.50;;
3643;SDS011;1838;50.742;7.158;2022-12-07T05:22:14;49.93;;;24.93;;
3643;SDS011;1838;50.742;7.158;2022-12-07T05:24:40;49.53;;;23.90;;
3643;SDS011;1838;50.742;7.158;2022-12-07T05:27:05;54.17;;;24.30;;
3643;SDS011;1838;50.742;7.158;2022-12-07T05:29:31;53.13;;;24.60;;
3643;SDS011;1838;50.742;7.158;2022-12-07T05:31:57;61.77;;;23.97;;
3643;SDS011;1838;50.742;7.158;2022-12-07T05:34:22;50.33;;;23.57;;
3643;SDS011;1838;50.742;7.158;2022-12-07T05:36:48;52.00;;;23.70;;
3643;SDS011;1838;50.742;7.158;2022-12-07T05:39:15;49.90;;;23.07;;
3643;SDS011;1838;50.742;7.158;2022-12-07T05:41:40;45.17;;;22.97;;
3643;SDS011;1838;50.742;7.158;2022-12-07T05:44:24;46.90;;;23.80;;
3643;SDS011;1838;50.742;7.158;2022-12-07T05:46:50;57.20;;;22.83;;
3643;SDS011;1838;50.742;7.158;2022-12-07T05:49:15;49.03;;;22.47;;
3643;SDS011;1838;50.742;7.158;2022-12-07T05:51:41;51.30;;;24.57;;
3643;SDS011;1838;50.742;7.158;2022-12-07T05:54:07;53.87;;;23.50;;
3643;SDS011;1838;50.742;7.158;2022-12-07T05:56:32;48.03;;;23.57;;
3643;SDS011;1838;50.742;7.158;2022-12-07T05:58:58;49.13;;;23.33;;
3643;SDS011;1838;50.742;7.158;2022-12-07T06:01:42;51.93;;;24.10;;
3643;SDS011;1838;50.742;7.158;2022-12-07T06:04:07;56.23;;;23.70;;
3643;SDS011;1838;50.742;7.158;2022-12-07T06:06:33;49.40;;;23.40;;
3643;SDS011;1838;50.742;7.158;2022-12-07T06:08:58;44.27;;;22.33;;
3643;SDS011;1838;50.742;7.158;2022-12-07T06:11:24;52.17;;;24.53;;
3643;SDS011;1838;50.742;7.158;2022-12-07T06:14:08;61.00;;;23.10;;
3643;SDS011;1838;50.742;7.158;2022-12-07T06:16:33;49.43;;;22.90;;
3643;SDS011;1838;50.742;7.158;2022-12-07T06:18:59;56.67;;;24.50;;
3643;SDS011;1838;50.742;7.158;2022-12-07T06:21:25;51.40;;;25.30;;
3643;SDS011;1838;50.742;7.158;2022-12-07T06:23:51;56.80;;;23.07;;
3643;SDS011;1838;50.742;7.158;2022-12-07T06:26:17;42.97;;;21.87;;
3643;SDS011;1838;50.742;7.158;2022-12-07T06:28:43;53.07;;;23.47;;
3643;SDS011;1838;50.742;7.158;2022-12-07T06:31:08;53.13;;;22.63;;
3643;SDS011;1838;50.742;7.158;2022-12-07T06:33:34;48.40;;;23.23;;
3643;SDS011;1838;50.742;7.158;2022-12-07T06:36:00;50.83;;;22.93;;
3643;SDS011;1838;50.742;7.158;2022-12-07T06:38:25;51.23;;;24.60;;
3643;SDS011;1838;50.742;7.158;2022-12-07T06:40:51;46.43;;;20.27;;
3643;SDS011;1838;50.742;7.158;2022-12-07T06:43:16;53.00;;;21.73;;
3643;SDS011;1838;50.742;7.158;2022-12-07T06:45:42;45.13;;;22.23;;
3643;SDS011;1838;50.742;7.158;2022-12-07T06:48:07;47.10;;;21.90;;
3643;SDS011;1838;50.742;7.158;2022-12-07T06:50:33;40.30;;;21.03;;
3643;SDS011;1838;50.742;7.158;2022-12-07T06:52:58;50.60;;;23.47;;
3643;SDS011;1838;50.742;7.158;2022-12-07T06:55:24;45.03;;;21.87;;
3643;SDS011;1838;50.742;7.158;2022-12-07T06:57:49;45.83;;;22.80;;
3643;SDS011;1838;50.742;7.158;2022-12-07T07:00:15;40.10;;;19.60;;
3643;SDS011;1838;50.742;7.158;2022-12-07T07:02:41;45.30;;;20.60;;
3643;SDS011;1838;50.742;7.158;2022-12-07T07:05:06;45.53;;;20.27;;
3643;SDS011;1838;50.742;7.158;2022-12-07T07:07:32;41.63;;;21.00;;
3643;SDS011;1838;50.742;7.158;2022-12-07T07:09:57;49.50;;;22.23;;
3643;SDS011;1838;50.742;7.158;2022-12-07T07:12:23;44.00;;;20.97;;
3643;SDS011;1838;50.742;7.158;2022-12-07T07:14:49;45.53;;;21.20;;
3643;SDS011;1838;50.742;7.158;2022-12-07T07:17:14;39.27;;;20.57;;
3643;SDS011;1838;50.742;7.158;2022-12-07T07:19:40;43.53;;;19.10;;
3643;SDS011;1838;50.742;7.158;2022-12-07T07:22:05;47.57;;;21.40;;
3643;SDS011;1838;50.742;7.158;2022-12-07T07:24:31;41.77;;;19.93;;
3643;SDS011;1838;50.742;7.158;2022-12-07T07:26:56;40.80;;;19.90;;
3643;SDS011;1838;50.742;7.158;2022-12-07T07:29:22;48.80;;;21.70;;
3643;SDS011;1838;50.742;7.158;2022-12-07T07:31:47;44.83;;;23.73;;
3643;SDS011;1838;50.742;7.158;2022-12-07T07:34:13;46.03;;;21.60;;
3643;SDS011;1838;50.742;7.158;2022-12-07T07:36:38;38.00;;;17.50;;
3643;SDS011;1838;50.742;7.158;2022-12-07T07:39:04;36.70;;;20.07;;
3643;SDS011;1838;50.742;7.158;2022-12-07T07:41:30;42.50;;;20.70;;
3643;SDS011;1838;50.742;7.158;2022-12-07T07:43:56;37.00;;;17.57;;
3643;SDS011;1838;50.742;7.158;2022-12-07T07:46:22;36.60;;;20.33;;
3643;SDS011;1838;50.742;7.158;2022-12-07T07:48:47;39.53;;;19.40;;
3643;SDS011;1838;50.742;7.158;2022-12-07T07:51:13;41.47;;;18.90;;
3643;SDS011;1838;50.742;7.158;2022-12-07T07:53:39;42.93;;;19.43;;
3643;SDS011;1838;50.742;7.158;2022-12-07T07:56:04;40.07;;;19.10;;
3643;SDS011;1838;50.742;7.158;2022-12-07T07:58:30;38.77;;;18.70;;
3643;SDS011;1838;50.742;7.158;2022-12-07T08:00:55;40.97;;;19.17;;
3643;SDS011;1838;50.742;7.158;2022-12-07T08:03:21;42.30;;;20.00;;
3643;SDS011;1838;50.742;7.158;2022-12-07T08:05:46;42.13;;;20.27;;
3643;SDS011;1838;50.742;7.158;2022-12-07T08:08:12;37.47;;;17.73;;
3643;SDS011;1838;50.742;7.158;2022-12-07T08:10:38;33.77;;;18.20;;
3643;SDS011;1838;50.742;7.158;2022-12-07T08:13:03;48.37;;;19.80;;
3643;SDS011;1838;50.742;7.158;2022-12-07T08:15:45;45.80;;;21.50;;
3643;SDS011;1838;50.742;7.158;2022-12-07T08:18:12;49.00;;;20.53;;
3643;SDS011;1838;50.742;7.158;2022-12-07T08:20:39;54.13;;;21.47;;
3643;SDS011;1838;50.742;7.158;2022-12-07T08:23:06;48.63;;;22.60;;
3643;SDS011;1838;50.742;7.158;2022-12-07T08:25:32;44.80;;;21.30;;
3643;SDS011;1838;50.742;7.158;2022-12-07T08:27:58;47.40;;;19.63;;
3643;SDS011;1838;50.742;7.158;2022-12-07T08:30:25;46.07;;;22.03;;
3643;SDS011;1838;50.742;7.158;2022-12-07T08:32:51;43.00;;;20.00;;
3643;SDS011;1838;50.742;7.158;2022-12-07T08:35:17;46.20;;;21.60;;
3643;SDS011;1838;50.742;7.158;2022-12-07T08:37:42;50.50;;;21.43;;
3643;SDS011;1838;50.742;7.158;2022-12-07T08:40:08;47.93;;;21.13;;
3643;SDS011;1838;50.742;7.158;2022-12-07T08:42:35;43.80;;;22.20;;
3643;SDS011;1838;50.742;7.158;2022-12-07T08:45:09;44.73;;;21.07;;
3643;SDS011;1838;50.742;7.158;2022-12-07T08:47:37;38.80;;;20.27;;
3643;SDS011;1838;50.742;7.158;2022-12-07T08:50:06;40.47;;;19.20;;
3643;SDS011;1838;50.742;7.158;2022-12-07T08:52:34;45.57;;;22.23;;
3643;SDS011;1838;50.742;7.158;2022-12-07T08:55:00;44.47;;;20.03;;
3643;SDS011;1838;50.742;7.158;2022-12-07T08:57:28;39.00;;;20.20;;
3643;SDS011;1838;50.742;7.158;2022-12-07T08:59:54;40.37;;;18.40;;
3643;SDS011;1838;50.742;7.158;2022-12-07T09:02:19;46.53;;;19.70;;
3643;SDS011;1838;50.742;7.158;2022-12-07T09:04:45;48.50;;;20.50;;
3643;SDS011;1838;50.742;7.158;2022-12-07T09:07:10;43.00;;;18.60;;
3643;SDS011;1838;50.742;7.158;2022-12-07T09:09:36;36.63;;;17.37;;
3643;SDS011;1838;50.742;7.158;2022-12-07T09:12:02;39.47;;;18.13;;
3643;SDS011;1838;50.742;7.158;2022-12-07T09:14:28;41.87;;;19.40;;
3643;SDS011;1838;50.742;7.158;2022-12-07T09:16:53;43.03;;;19.87;;
3643;SDS011;1838;50.742;7.158;2022-12-07T09:19:19;38.87;;;18.80;;
3643;SDS011;1838;50.742;7.158;2022-12-07T09:21:44;41.37;;;17.60;;
3643;SDS011;1838;50.742;7.158;2022-12-07T09:24:11;48.37;;;16.50;;
3643;SDS011;1838;50.742;7.158;2022-12-07T09:26:37;56.53;;;16.80;;
3643;SDS011;1838;50.742;7.158;2022-12-07T09:29:04;34.13;;;17.43;;
3643;SDS011;1838;50.742;7.158;2022-12-07T09:31:29;41.63;;;17.63;;
3643;SDS011;1838;50.742;7.158;2022-12-07T09:33:59;38.47;;;18.23;;
3643;SDS011;1838;50.742;7.158;2022-12-07T09:36:25;33.63;;;16.57;;
3643;SDS011;1838;50.742;7.158;2022-12-07T09:38:52;32.50;;;17.40;;
3643;SDS011;1838;50.742;7.158;2022-12-07T09:41:18;37.33;;;16.30;;
3643;SDS011;1838;50.742;7.158;2022-12-07T09:43:44;36.93;;;16.60;;
3643;SDS011;1838;50.742;7.158;2022-12-07T09:46:14;43.77;;;18.27;;
3643;SDS011;1838;50.742;7.158;2022-12-07T09:48:43;38.97;;;16.77;;
3643;SDS011;1838;50.742;7.158;2022-12-07T09:51:13;41.20;;;18.77;;
3643;SDS011;1838;50.742;7.158;2022-12-07T09:53:41;44.80;;;18.67;;
3643;SDS011;1838;50.742;7.158;2022-12-07T09:56:09;38.70;;;19.13;;
3643;SDS011;1838;50.742;7.158;2022-12-07T09:58:38;36.90;;;17.53;;
3643;SDS011;1838;50.742;7.158;2022-12-07T10:03:32;32.53;;;16.00;;
3643;SDS011;1838;50.742;7.158;2022-12-07T10:06:13;29.37;;;14.70;;
3643;SDS011;1838;50.742;7.158;2022-12-07T10:08:39;34.13;;;16.20;;
3643;SDS011;1838;50.742;7.158;2022-12-07T10:11:06;36.80;;;16.93;;
3643;SDS011;1838;50.742;7.158;2022-12-07T10:16:43;29.93;;;14.33;;
3643;SDS011;1838;50.742;7.158;2022-12-07T10:19:20;34.00;;;14.57;;
3643;SDS011;1838;50.742;7.158;2022-12-07T10:22:04;34.73;;;14.60;;
3643;SDS011;1838;50.742;7.158;2022-12-07T10:24:38;28.57;;;14.83;;
3643;SDS011;1838;50.742;7.158;2022-12-07T10:27:15;32.50;;;15.00;;
3643;SDS011;1838;50.742;7.158;2022-12-07T10:29:47;36.37;;;16.93;;
3643;SDS011;1838;50.742;7.158;2022-12-07T10:34:40;29.00;;;14.57;;
3643;SDS011;1838;50.742;7.158;2022-12-07T10:37:15;28.93;;;14.57;;
3643;SDS011;1838;50.742;7.158;2022-12-07T10:50:37;33.20;;;12.53;;
3643;SDS011;1838;50.742;7.158;2022-12-07T10:53:17;28.33;;;12.57;;
3643;SDS011;1838;50.742;7.158;2022-12-07T10:56:14;31.47;;;12.50;;
3643;SDS011;1838;50.742;7.158;2022-12-07T11:07:38;28.13;;;13.20;;
3643;SDS011;1838;50.742;7.158;2022-12-07T11:10:37;25.50;;;11.30;;
3643;SDS011;1838;50.742;7.158;2022-12-07T11:13:18;19.40;;;10.30;;
3643;SDS011;1838;50.742;7.158;2022-12-07T11:16:13;23.47;;;11.13;;
3643;SDS011;1838;50.742;7.158;2022-12-07T11:18:51;19.90;;;10.43;;
3643;SDS011;1838;50.742;7.158;2022-12-07T11:22:03;20.53;;;10.60;;
3643;SDS011;1838;50.742;7.158;2022-12-07T11:24:27;16.50;;;9.13;;
3643;SDS011;1838;50.742;7.158;2022-12-07T11:32:13;18.53;;;8.40;;
3643;SDS011;1838;50.742;7.158;2022-12-07T11:35:05;21.30;;;9.57;;
3643;SDS011;1838;50.742;7.158;2022-12-07T11:37:44;20.87;;;9.10;;
3643;SDS011;1838;50.742;7.158;2022-12-07T11:42:52;26.43;;;9.50;;
3643;SDS011;1838;50.742;7.158;2022-12-07T11:45:44;17.20;;;7.90;;
3643;SDS011;1838;50.742;7.158;2022-12-07T11:48:19;17.50;;;7.93;;
3643;SDS011;1838;50.742;7.158;2022-12-07T11:50:50;14.07;;;7.17;;
3643;SDS011;1838;50.742;7.158;2022-12-07T11:53:33;22.53;;;7.43;;
3643;SDS011;1838;50.742;7.158;2022-12-07T11:56:06;22.20;;;6.87;;
3643;SDS011;1838;50.742;7.158;2022-12-07T11:58:57;16.93;;;7.23;;
3643;SDS011;1838;50.742;7.158;2022-12-07T12:06:36;20.70;;;8.40;;
3643;SDS011;1838;50.742;7.158;2022-12-07T12:09:09;15.13;;;7.07;;
3643;SDS011;1838;50.742;7.158;2022-12-07T12:28:01;13.87;;;6.00;;
3643;SDS011;1838;50.742;7.158;2022-12-07T12:33:04;11.30;;;5.10;;
3643;SDS011;1838;50.742;7.158;2022-12-07T12:35:44;9.90;;;5.03;;
3643;SDS011;1838;50.742;7.158;2022-12-07T12:38:21;9.43;;;5.03;;
3643;SDS011;1838;50.742;7.158;2022-12-07T12:40:55;11.17;;;5.03;;
3643;SDS011;1838;50.742;7.158;2022-12-07T12:59:21;15.90;;;6.97;;
3643;SDS011;1838;50.742;7.158;2022-12-07T13:10:21;11.57;;;6.93;;
3643;SDS011;1838;50.742;7.158;2022-12-07T13:15:36;14.57;;;6.63;;
3643;SDS011;1838;50.742;7.158;2022-12-07T13:23:22;15.07;;;7.20;;
3643;SDS011;1838;50.742;7.158;2022-12-07T13:28:43;16.53;;;7.10;;
3643;SDS011;1838;50.742;7.158;2022-12-07T13:31:11;17.60;;;9.20;;
3643;SDS011;1838;50.742;7.158;2022-12-07T13:33:45;20.13;;;8.40;;
3643;SDS011;1838;50.742;7.158;2022-12-07T13:36:17;18.63;;;8.80;;
3643;SDS011;1838;50.742;7.158;2022-12-07T13:39:17;16.53;;;7.90;;
3643;SDS011;1838;50.742;7.158;2022-12-07T13:41:42;15.90;;;7.60;;
3643;SDS011;1838;50.742;7.158;2022-12-07T13:44:15;20.43;;;7.27;;
3643;SDS011;1838;50.742;7.158;2022-12-07T13:49:49;7.10;;;4.70;;
3643;SDS011;1838;50.742;7.158;2022-12-07T13:52:17;17.40;;;6.27;;
3643;SDS011;1838;50.742;7.158;2022-12-07T13:57:31;20.53;;;7.80;;
3643;SDS011;1838;50.742;7.158;2022-12-07T14:00:00;19.47;;;9.37;;
3643;SDS011;1838;50.742;7.158;2022-12-07T14:02:32;18.93;;;9.20;;
3643;SDS011;1838;50.742;7.158;2022-12-07T14:05:16;22.17;;;9.50;;
3643;SDS011;1838;50.742;7.158;2022-12-07T14:07:58;14.50;;;9.43;;
3643;SDS011;1838;50.742;7.158;2022-12-07T14:10:27;20.20;;;8.50;;
3643;SDS011;1838;50.742;7.158;2022-12-07T14:12:58;18.17;;;8.57;;
3643;SDS011;1838;50.742;7.158;2022-12-07T14:18:40;16.60;;;9.43;;
3643;SDS011;1838;50.742;7.158;2022-12-07T14:23:38;17.17;;;9.73;;
3643;SDS011;1838;50.742;7.158;2022-12-07T14:26:27;24.60;;;7.60;;
3643;SDS011;1838;50.742;7.158;2022-12-07T14:29:10;23.73;;;6.97;;
3643;SDS011;1838;50.742;7.158;2022-12-07T14:35:01;14.87;;;6.63;;
3643;SDS011;1838;50.742;7.158;2022-12-07T14:37:37;9.40;;;5.93;;
3643;SDS011;1838;50.742;7.158;2022-12-07T14:40:04;8.10;;;5.00;;
3643;SDS011;1838;50.742;7.158;2022-12-07T14:42:31;7.90;;;5.03;;
3643;SDS011;1838;50.742;7.158;2022-12-07T14:44:57;7.23;;;3.90;;
3643;SDS011;1838;50.742;7.158;2022-12-07T14:47:24;7.07;;;3.60;;
3643;SDS011;1838;50.742;7.158;2022-12-07T14:49:51;6.20;;;3.60;;
3643;SDS011;1838;50.742;7.158;2022-12-07T14:52:24;5.63;;;3.80;;
3643;SDS011;1838;50.742;7.158;2022-12-07T14:54:52;8.03;;;4.23;;
3643;SDS011;1838;50.742;7.158;2022-12-07T14:57:18;8.93;;;4.10;;
3643;SDS011;1838;50.742;7.158;2022-12-07T14:59:43;7.03;;;3.77;;
3643;SDS011;1838;50.742;7.158;2022-12-07T15:02:10;12.40;;;4.10;;
3643;SDS011;1838;50.742;7.158;2022-12-07T15:04:37;6.13;;;4.50;;
3643;SDS011;1838;50.742;7.158;2022-12-07T15:07:04;9.63;;;5.53;;
3643;SDS011;1838;50.742;7.158;2022-12-07T15:09:31;13.30;;;5.30;;
3643;SDS011;1838;50.742;7.158;2022-12-07T15:11:57;13.50;;;5.20;;
3643;SDS011;1838;50.742;7.158;2022-12-07T15:14:22;11.73;;;5.87;;
3643;SDS011;1838;50.742;7.158;2022-12-07T15:16:48;13.73;;;6.13;;
3643;SDS011;1838;50.742;7.158;2022-12-07T15:19:14;11.50;;;6.70;;
3643;SDS011;1838;50.742;7.158;2022-12-07T15:21:42;11.93;;;6.93;;
3643;SDS011;1838;50.742;7.158;2022-12-07T15:24:09;10.90;;;6.03;;
3643;SDS011;1838;50.742;7.158;2022-12-07T15:26:35;13.70;;;5.70;;
3643;SDS011;1838;50.742;7.158;2022-12-07T15:29:01;7.93;;;5.47;;
3643;SDS011;1838;50.742;7.158;2022-12-07T15:31:27;14.70;;;6.87;;
3643;SDS011;1838;50.742;7.158;2022-12-07T15:33:53;13.87;;;7.03;;
3643;SDS011;1838;50.742;7.158;2022-12-07T15:36:23;12.60;;;6.80;;
3643;SDS011;1838;50.742;7.158;2022-12-07T15:38:50;13.10;;;6.97;;
3643;SDS011;1838;50.742;7.158;2022-12-07T15:41:16;10.63;;;7.40;;
3643;SDS011;1838;50.742;7.158;2022-12-07T15:43:53;12.80;;;7.72;;
3643;SDS011;1838;50.742;7.158;2022-12-07T15:46:38;9.20;;;6.10;;
3643;SDS011;1838;50.742;7.158;2022-12-07T15:49:10;14.60;;;7.73;;
3643;SDS011;1838;50.742;7.158;2022-12-07T15:51:38;14.23;;;8.20;;
3643;SDS011;1838;50.742;7.158;2022-12-07T15:54:03;17.27;;;9.10;;
3643;SDS011;1838;50.742;7.158;2022-12-07T15:56:29;20.10;;;7.77;;
3643;SDS011;1838;50.742;7.158;2022-12-07T15:58:55;18.40;;;8.93;;
3643;SDS011;1838;50.742;7.158;2022-12-07T16:01:22;17.87;;;7.50;;
3643;SDS011;1838;50.742;7.158;2022-12-07T16:03:48;21.83;;;10.63;;
3643;SDS011;1838;50.742;7.158;2022-12-07T16:06:17;23.63;;;9.87;;
3643;SDS011;1838;50.742;7.158;2022-12-07T16:08:46;18.27;;;8.90;;
3643;SDS011;1838;50.742;7.158;2022-12-07T16:11:12;15.13;;;8.30;;
3643;SDS011;1838;50.742;7.158;2022-12-07T16:13:38;18.10;;;9.07;;
3643;SDS011;1838;50.742;7.158;2022-12-07T16:16:05;16.47;;;9.17;;
3643;SDS011;1838;50.742;7.158;2022-12-07T16:18:32;17.17;;;9.63;;
3643;SDS011;1838;50.742;7.158;2022-12-07T16:20:58;19.37;;;9.50;;
3643;SDS011;1838;50.742;7.158;2022-12-07T16:23:23;15.00;;;8.93;;
3643;SDS011;1838;50.742;7.158;2022-12-07T16:25:49;20.03;;;8.87;;
3643;SDS011;1838;50.742;7.158;2022-12-07T16:28:14;18.37;;;9.60;;
3643;SDS011;1838;50.742;7.158;2022-12-07T16:30:40;16.77;;;9.20;;
3643;SDS011;1838;50.742;7.158;2022-12-07T16:33:05;15.37;;;8.80;;
3643;SDS011;1838;50.742;7.158;2022-12-07T16:35:31;17.50;;;9.03;;
3643;SDS011;1838;50.742;7.158;2022-12-07T16:37:56;18.07;;;9.03;;
3643;SDS011;1838;50.742;7.158;2022-12-07T16:40:22;17.33;;;9.93;;
3643;SDS011;1838;50.742;7.158;2022-12-07T16:42:47;15.43;;;9.07;;
3643;SDS011;1838;50.742;7.158;2022-12-07T16:45:13;19.73;;;10.23;;
3643;SDS011;1838;50.742;7.158;2022-12-07T16:47:38;26.47;;;9.80;;
3643;SDS011;1838;50.742;7.158;2022-12-07T16:50:05;19.70;;;10.13;;
3643;SDS011;1838;50.742;7.158;2022-12-07T16:52:32;19.20;;;11.17;;
3643;SDS011;1838;50.742;7.158;2022-12-07T16:54:58;22.30;;;10.00;;
3643;SDS011;1838;50.742;7.158;2022-12-07T16:57:24;18.20;;;10.77;;
3643;SDS011;1838;50.742;7.158;2022-12-07T16:59:50;19.10;;;10.10;;
3643;SDS011;1838;50.742;7.158;2022-12-07T17:02:16;20.47;;;8.90;;
3643;SDS011;1838;50.742;7.158;2022-12-07T17:04:42;32.27;;;10.67;;
3643;SDS011;1838;50.742;7.158;2022-12-07T17:07:08;18.53;;;11.33;;
3643;SDS011;1838;50.742;7.158;2022-12-07T17:09:33;15.13;;;8.17;;
3643;SDS011;1838;50.742;7.158;2022-12-07T17:12:00;12.60;;;8.67;;
3643;SDS011;1838;50.742;7.158;2022-12-07T17:14:25;17.10;;;10.50;;
3643;SDS011;1838;50.742;7.158;2022-12-07T17:17:10;14.53;;;9.60;;
3643;SDS011;1838;50.742;7.158;2022-12-07T17:19:35;14.43;;;9.50;;
3643;SDS011;1838;50.742;7.158;2022-12-07T17:22:01;20.33;;;10.90;;
3643;SDS011;1838;50.742;7.158;2022-12-07T17:24:26;19.13;;;10.80;;